Terminal Aerodrome Forecast
Issued by NWS Duluth, MN

Home | Current Version | Previous Version | Text Only | Print | Product List | Glossary On
Versions: 1 2 3 4 5 6 7 8 9 10 11 12 13 14 15 16 17 18 19 20 21 22 23 24 25 26 27
000
FTUS43 KDLH 221700
TAFINL
TAF
KINL 221732Z 2218/2318 16013G20KT P6SM SCT040 BKN250
     FM230200 17008KT P6SM VCSH SCT035 BKN100 WS020/18035KT
     FM230500 18006KT 6SM -RA SCT010 BKN080
     FM231000 20005KT P6SM SCT080=

USA.gov is the U.S. government's official web portal to all federal, state and local government web resources and services.